sensor_id;sensor_type;location;lat;lon;timestamp;temperature;humidity
3850;DHT22;1940;51.052;13.678;2023-04-06T00:00:32;2.90;78.20
3850;DHT22;1940;51.052;13.678;2023-04-06T00:02:57;2.90;78.40
3850;DHT22;1940;51.052;13.678;2023-04-06T00:05:23;2.90;78.50
3850;DHT22;1940;51.052;13.678;2023-04-06T00:07:48;2.90;78.90
3850;DHT22;1940;51.052;13.678;2023-04-06T00:13:36;2.80;78.90
3850;DHT22;1940;51.052;13.678;2023-04-06T00:16:02;2.80;78.90
3850;DHT22;1940;51.052;13.678;2023-04-06T00:18:28;2.80;79.00
3850;DHT22;1940;51.052;13.678;2023-04-06T00:20:53;2.80;79.20
3850;DHT22;1940;51.052;13.678;2023-04-06T00:23:19;2.80;79.40
3850;DHT22;1940;51.052;13.678;2023-04-06T00:25:44;2.90;79.60
3850;DHT22;1940;51.052;13.678;2023-04-06T00:28:10;2.90;79.60
3850;DHT22;1940;51.052;13.678;2023-04-06T00:30:35;2.90;79.60
3850;DHT22;1940;51.052;13.678;2023-04-06T00:33:01;2.90;79.60
3850;DHT22;1940;51.052;13.678;2023-04-06T00:35:26;2.90;79.40
3850;DHT22;1940;51.052;13.678;2023-04-06T00:37:52;2.90;79.40
3850;DHT22;1940;51.052;13.678;2023-04-06T00:40:17;2.90;79.60
3850;DHT22;1940;51.052;13.678;2023-04-06T00:42:43;2.90;79.40
3850;DHT22;1940;51.052;13.678;2023-04-06T00:45:09;2.90;79.40
3850;DHT22;1940;51.052;13.678;2023-04-06T00:47:35;2.90;79.30
3850;DHT22;1940;51.052;13.678;2023-04-06T00:50:01;2.90;79.10
3850;DHT22;1940;51.052;13.678;2023-04-06T00:52:26;2.90;79.20
3850;DHT22;1940;51.052;13.678;2023-04-06T00:54:52;2.80;79.60
3850;DHT22;1940;51.052;13.678;2023-04-06T00:57:17;2.80;79.60
3850;DHT22;1940;51.052;13.678;2023-04-06T00:59:43;2.80;79.60
3850;DHT22;1940;51.052;13.678;2023-04-06T01:02:09;2.70;79.30
3850;DHT22;1940;51.052;13.678;2023-04-06T01:04:35;2.70;79.40
3850;DHT22;1940;51.052;13.678;2023-04-06T01:07:01;2.60;79.10
3850;DHT22;1940;51.052;13.678;2023-04-06T01:09:30;2.60;79.30
3850;DHT22;1940;51.052;13.678;2023-04-06T01:11:56;2.60;79.30
3850;DHT22;1940;51.052;13.678;2023-04-06T01:14:22;2.50;79.30
3850;DHT22;1940;51.052;13.678;2023-04-06T01:16:47;2.50;79.10
3850;DHT22;1940;51.052;13.678;2023-04-06T01:19:13;2.50;79.20
3850;DHT22;1940;51.052;13.678;2023-04-06T01:21:39;2.50;79.20
3850;DHT22;1940;51.052;13.678;2023-04-06T01:24:05;2.60;79.30
3850;DHT22;1940;51.052;13.678;2023-04-06T01:26:32;2.60;79.30
3850;DHT22;1940;51.052;13.678;2023-04-06T01:28:58;2.60;79.50
3850;DHT22;1940;51.052;13.678;2023-04-06T01:31:23;2.60;79.40
3850;DHT22;1940;51.052;13.678;2023-04-06T01:33:49;2.60;79.40
3850;DHT22;1940;51.052;13.678;2023-04-06T01:36:15;2.50;79.70
3850;DHT22;1940;51.052;13.678;2023-04-06T01:38:41;2.40;79.90
3850;DHT22;1940;51.052;13.678;2023-04-06T01:41:07;2.40;80.10
3850;DHT22;1940;51.052;13.678;2023-04-06T01:43:32;2.30;79.90
3850;DHT22;1940;51.052;13.678;2023-04-06T01:45:58;2.30;79.90
3850;DHT22;1940;51.052;13.678;2023-04-06T01:48:23;2.30;79.80
3850;DHT22;1940;51.052;13.678;2023-04-06T01:50:49;2.40;79.80
3850;DHT22;1940;51.052;13.678;2023-04-06T01:53:14;2.30;79.80
3850;DHT22;1940;51.052;13.678;2023-04-06T01:55:40;2.30;80.00
3850;DHT22;1940;51.052;13.678;2023-04-06T01:58:06;2.30;80.10
3850;DHT22;1940;51.052;13.678;2023-04-06T02:00:31;2.20;79.70
3850;DHT22;1940;51.052;13.678;2023-04-06T02:02:57;2.20;79.80
3850;DHT22;1940;51.052;13.678;2023-04-06T02:05:22;2.20;80.00
3850;DHT22;1940;51.052;13.678;2023-04-06T02:07:48;2.20;79.90
3850;DHT22;1940;51.052;13.678;2023-04-06T02:10:14;2.20;79.70
3850;DHT22;1940;51.052;13.678;2023-04-06T02:12:40;2.20;79.70
3850;DHT22;1940;51.052;13.678;2023-04-06T02:15:06;2.10;79.80
3850;DHT22;1940;51.052;13.678;2023-04-06T02:17:31;2.10;79.80
3850;DHT22;1940;51.052;13.678;2023-04-06T02:19:57;2.00;80.00
3850;DHT22;1940;51.052;13.678;2023-04-06T02:22:23;2.00;80.00
3850;DHT22;1940;51.052;13.678;2023-04-06T02:24:48;1.90;80.00
3850;DHT22;1940;51.052;13.678;2023-04-06T02:27:14;1.90;79.90
3850;DHT22;1940;51.052;13.678;2023-04-06T02:29:40;1.80;80.20
3850;DHT22;1940;51.052;13.678;2023-04-06T02:32:05;1.80;80.50
3850;DHT22;1940;51.052;13.678;2023-04-06T02:34:31;1.70;80.50
3850;DHT22;1940;51.052;13.678;2023-04-06T02:36:56;1.70;80.30
3850;DHT22;1940;51.052;13.678;2023-04-06T02:39:22;1.60;80.30
3850;DHT22;1940;51.052;13.678;2023-04-06T02:41:48;1.50;80.60
3850;DHT22;1940;51.052;13.678;2023-04-06T02:44:13;1.50;80.80
3850;DHT22;1940;51.052;13.678;2023-04-06T02:46:39;1.50;81.10
3850;DHT22;1940;51.052;13.678;2023-04-06T02:49:04;1.50;81.10
3850;DHT22;1940;51.052;13.678;2023-04-06T02:51:30;1.50;81.30
3850;DHT22;1940;51.052;13.678;2023-04-06T02:53:56;1.50;81.40
3850;DHT22;1940;51.052;13.678;2023-04-06T02:56:21;1.50;81.30
3850;DHT22;1940;51.052;13.678;2023-04-06T02:58:47;1.40;81.80
3850;DHT22;1940;51.052;13.678;2023-04-06T03:01:13;1.40;82.00
3850;DHT22;1940;51.052;13.678;2023-04-06T03:03:38;1.30;82.10
3850;DHT22;1940;51.052;13.678;2023-04-06T03:06:04;1.30;82.30
3850;DHT22;1940;51.052;13.678;2023-04-06T03:08:30;1.30;82.40
3850;DHT22;1940;51.052;13.678;2023-04-06T03:10:55;1.20;82.40
3850;DHT22;1940;51.052;13.678;2023-04-06T03:13:21;1.20;82.70
3850;DHT22;1940;51.052;13.678;2023-04-06T03:15:46;1.20;82.90
3850;DHT22;1940;51.052;13.678;2023-04-06T03:18:12;1.20;82.90
3850;DHT22;1940;51.052;13.678;2023-04-06T03:20:37;1.10;82.90
3850;DHT22;1940;51.052;13.678;2023-04-06T03:23:03;1.20;83.00
3850;DHT22;1940;51.052;13.678;2023-04-06T03:25:29;1.10;83.00
3850;DHT22;1940;51.052;13.678;2023-04-06T03:27:55;1.10;83.10
3850;DHT22;1940;51.052;13.678;2023-04-06T03:30:21;1.10;83.10
3850;DHT22;1940;51.052;13.678;2023-04-06T03:32:47;1.10;83.20
3850;DHT22;1940;51.052;13.678;2023-04-06T03:35:12;1.10;83.30
3850;DHT22;1940;51.052;13.678;2023-04-06T03:37:38;1.10;83.30
3850;DHT22;1940;51.052;13.678;2023-04-06T03:40:04;1.10;83.20
3850;DHT22;1940;51.052;13.678;2023-04-06T03:42:30;1.10;83.30
3850;DHT22;1940;51.052;13.678;2023-04-06T03:44:56;1.10;83.30
3850;DHT22;1940;51.052;13.678;2023-04-06T03:47:22;1.00;83.20
3850;DHT22;1940;51.052;13.678;2023-04-06T03:49:47;1.00;83.20
3850;DHT22;1940;51.052;13.678;2023-04-06T03:52:13;1.10;83.20
3850;DHT22;1940;51.052;13.678;2023-04-06T03:54:38;0.90;83.30
3850;DHT22;1940;51.052;13.678;2023-04-06T03:57:04;1.00;83.70
3850;DHT22;1940;51.052;13.678;2023-04-06T03:59:30;0.90;83.50
3850;DHT22;1940;51.052;13.678;2023-04-06T04:01:55;1.00;83.70
3850;DHT22;1940;51.052;13.678;2023-04-06T04:04:21;0.90;83.50
3850;DHT22;1940;51.052;13.678;2023-04-06T04:06:46;0.90;83.30
3850;DHT22;1940;51.052;13.678;2023-04-06T04:09:12;0.80;83.40
3850;DHT22;1940;51.052;13.678;2023-04-06T04:11:37;0.80;83.50
3850;DHT22;1940;51.052;13.678;2023-04-06T04:14:03;0.70;83.40
3850;DHT22;1940;51.052;13.678;2023-04-06T04:16:29;0.60;83.60
3850;DHT22;1940;51.052;13.678;2023-04-06T04:18:54;0.60;83.80
3850;DHT22;1940;51.052;13.678;2023-04-06T04:21:20;0.60;83.90
3850;DHT22;1940;51.052;13.678;2023-04-06T04:23:45;0.50;84.10
3850;DHT22;1940;51.052;13.678;2023-04-06T04:26:11;0.50;84.30
3850;DHT22;1940;51.052;13.678;2023-04-06T04:28:36;0.50;84.40
3850;DHT22;1940;51.052;13.678;2023-04-06T04:31:09;0.50;84.40
3850;DHT22;1940;51.052;13.678;2023-04-06T04:33:35;0.60;84.30
3850;DHT22;1940;51.052;13.678;2023-04-06T04:36:01;0.50;84.60
3850;DHT22;1940;51.052;13.678;2023-04-06T04:38:27;0.50;84.60
3850;DHT22;1940;51.052;13.678;2023-04-06T04:40:52;0.60;84.50
3850;DHT22;1940;51.052;13.678;2023-04-06T04:43:18;0.60;84.50
3850;DHT22;1940;51.052;13.678;2023-04-06T04:45:43;0.70;84.30
3850;DHT22;1940;51.052;13.678;2023-04-06T04:48:09;0.70;84.20
3850;DHT22;1940;51.052;13.678;2023-04-06T04:50:34;0.60;84.30
3850;DHT22;1940;51.052;13.678;2023-04-06T04:53:00;0.60;84.40
3850;DHT22;1940;51.052;13.678;2023-04-06T04:55:25;0.60;84.40
3850;DHT22;1940;51.052;13.678;2023-04-06T04:57:51;0.60;84.20
3850;DHT22;1940;51.052;13.678;2023-04-06T05:00:17;0.70;84.30
3850;DHT22;1940;51.052;13.678;2023-04-06T05:02:42;0.80;84.40
3850;DHT22;1940;51.052;13.678;2023-04-06T05:05:08;1.10;84.80
3850;DHT22;1940;51.052;13.678;2023-04-06T05:07:34;1.50;84.30
3850;DHT22;1940;51.052;13.678;2023-04-06T05:09:59;2.10;82.80
3850;DHT22;1940;51.052;13.678;2023-04-06T05:12:25;2.70;81.30
3850;DHT22;1940;51.052;13.678;2023-04-06T05:14:53;3.30;78.70
3850;DHT22;1940;51.052;13.678;2023-04-06T05:17:19;4.00;76.70
3850;DHT22;1940;51.052;13.678;2023-04-06T05:19:44;4.60;74.40
3850;DHT22;1940;51.052;13.678;2023-04-06T05:22:10;5.20;72.30
3850;DHT22;1940;51.052;13.678;2023-04-06T05:24:36;6.10;70.90
3850;DHT22;1940;51.052;13.678;2023-04-06T05:27:01;6.70;67.70
3850;DHT22;1940;51.052;13.678;2023-04-06T05:29:27;7.30;66.50
3850;DHT22;1940;51.052;13.678;2023-04-06T05:31:54;8.00;64.70
3850;DHT22;1940;51.052;13.678;2023-04-06T05:34:19;8.50;62.80
3850;DHT22;1940;51.052;13.678;2023-04-06T05:36:45;8.90;61.50
3850;DHT22;1940;51.052;13.678;2023-04-06T05:39:10;9.30;60.40
3850;DHT22;1940;51.052;13.678;2023-04-06T05:41:37;9.60;59.20
3850;DHT22;1940;51.052;13.678;2023-04-06T05:44:03;9.60;58.50
3850;DHT22;1940;51.052;13.678;2023-04-06T05:46:28;9.80;58.30
3850;DHT22;1940;51.052;13.678;2023-04-06T05:48:54;10.20;57.30
3850;DHT22;1940;51.052;13.678;2023-04-06T05:51:19;10.10;57.20
3850;DHT22;1940;51.052;13.678;2023-04-06T05:53:45;10.30;56.60
3850;DHT22;1940;51.052;13.678;2023-04-06T05:56:11;10.30;56.60
3850;DHT22;1940;51.052;13.678;2023-04-06T05:58:36;10.50;56.10
3850;DHT22;1940;51.052;13.678;2023-04-06T06:01:02;10.50;56.00
3850;DHT22;1940;51.052;13.678;2023-04-06T06:03:28;10.60;55.60
3850;DHT22;1940;51.052;13.678;2023-04-06T06:06:00;10.40;55.60
3850;DHT22;1940;51.052;13.678;2023-04-06T06:08:25;10.50;55.70
3850;DHT22;1940;51.052;13.678;2023-04-06T06:10:51;10.40;55.30
3850;DHT22;1940;51.052;13.678;2023-04-06T06:13:16;10.10;56.00
3850;DHT22;1940;51.052;13.678;2023-04-06T06:15:42;9.70;56.30
3850;DHT22;1940;51.052;13.678;2023-04-06T06:18:07;9.70;57.00
3850;DHT22;1940;51.052;13.678;2023-04-06T06:20:33;10.10;56.30
3850;DHT22;1940;51.052;13.678;2023-04-06T06:22:58;10.20;56.00
3850;DHT22;1940;51.052;13.678;2023-04-06T06:25:24;10.40;55.50
3850;DHT22;1940;51.052;13.678;2023-04-06T06:27:50;10.70;55.00
3850;DHT22;1940;51.052;13.678;2023-04-06T06:30:15;10.90;54.30
3850;DHT22;1940;51.052;13.678;2023-04-06T06:32:41;10.90;54.30
3850;DHT22;1940;51.052;13.678;2023-04-06T06:35:07;10.90;54.60
3850;DHT22;1940;51.052;13.678;2023-04-06T06:37:32;11.20;54.50
3850;DHT22;1940;51.052;13.678;2023-04-06T06:39:58;11.50;53.30
3850;DHT22;1940;51.052;13.678;2023-04-06T06:42:23;11.70;53.10
3850;DHT22;1940;51.052;13.678;2023-04-06T06:44:49;11.80;52.80
3850;DHT22;1940;51.052;13.678;2023-04-06T06:47:14;12.20;52.30
3850;DHT22;1940;51.052;13.678;2023-04-06T06:49:40;12.80;51.80
3850;DHT22;1940;51.052;13.678;2023-04-06T06:52:05;13.30;50.30
3850;DHT22;1940;51.052;13.678;2023-04-06T06:54:31;13.60;49.80
3850;DHT22;1940;51.052;13.678;2023-04-06T06:56:57;13.50;49.90
3850;DHT22;1940;51.052;13.678;2023-04-06T06:59:22;13.40;49.30
3850;DHT22;1940;51.052;13.678;2023-04-06T07:01:48;13.60;49.70
3850;DHT22;1940;51.052;13.678;2023-04-06T07:04:14;13.70;49.20
3850;DHT22;1940;51.052;13.678;2023-04-06T07:06:40;13.60;49.30
3850;DHT22;1940;51.052;13.678;2023-04-06T07:09:05;14.10;48.50
3850;DHT22;1940;51.052;13.678;2023-04-06T07:11:31;14.40;48.20
3850;DHT22;1940;51.052;13.678;2023-04-06T07:13:56;14.20;48.20
3850;DHT22;1940;51.052;13.678;2023-04-06T07:16:21;14.10;48.90
3850;DHT22;1940;51.052;13.678;2023-04-06T07:18:47;14.40;48.20
3850;DHT22;1940;51.052;13.678;2023-04-06T07:21:13;15.00;47.40
3850;DHT22;1940;51.052;13.678;2023-04-06T07:23:38;15.60;46.80
3850;DHT22;1940;51.052;13.678;2023-04-06T07:26:04;15.80;46.20
3850;DHT22;1940;51.052;13.678;2023-04-06T07:28:29;16.50;45.40
3850;DHT22;1940;51.052;13.678;2023-04-06T07:30:55;16.60;44.40
3850;DHT22;1940;51.052;13.678;2023-04-06T07:33:21;17.00;43.80
3850;DHT22;1940;51.052;13.678;2023-04-06T07:35:46;17.00;43.80
3850;DHT22;1940;51.052;13.678;2023-04-06T07:38:12;17.10;43.50
3850;DHT22;1940;51.052;13.678;2023-04-06T07:40:37;17.90;43.00
3850;DHT22;1940;51.052;13.678;2023-04-06T07:43:03;18.50;42.50
3850;DHT22;1940;51.052;13.678;2023-04-06T07:45:29;18.90;41.70
3850;DHT22;1940;51.052;13.678;2023-04-06T07:47:54;19.00;41.10
3850;DHT22;1940;51.052;13.678;2023-04-06T07:50:20;19.20;41.00
3850;DHT22;1940;51.052;13.678;2023-04-06T07:52:45;19.20;40.90
3850;DHT22;1940;51.052;13.678;2023-04-06T07:55:11;20.00;40.40
3850;DHT22;1940;51.052;13.678;2023-04-06T07:57:37;20.40;39.60
3850;DHT22;1940;51.052;13.678;2023-04-06T08:00:03;20.90;39.00
3850;DHT22;1940;51.052;13.678;2023-04-06T08:02:30;20.60;38.90
3850;DHT22;1940;51.052;13.678;2023-04-06T08:04:56;20.30;39.50
3850;DHT22;1940;51.052;13.678;2023-04-06T08:07:21;19.90;40.10
3850;DHT22;1940;51.052;13.678;2023-04-06T08:09:47;20.50;39.50
3850;DHT22;1940;51.052;13.678;2023-04-06T08:12:13;20.90;38.30
3850;DHT22;1940;51.052;13.678;2023-04-06T08:14:39;21.10;38.60
3850;DHT22;1940;51.052;13.678;2023-04-06T08:17:04;21.00;38.10
3850;DHT22;1940;51.052;13.678;2023-04-06T08:19:30;21.50;37.80
3850;DHT22;1940;51.052;13.678;2023-04-06T08:21:55;22.30;36.80
3850;DHT22;1940;51.052;13.678;2023-04-06T08:24:21;22.90;36.40
3850;DHT22;1940;51.052;13.678;2023-04-06T08:26:46;23.10;35.10
3850;DHT22;1940;51.052;13.678;2023-04-06T08:29:12;22.80;34.50
3850;DHT22;1940;51.052;13.678;2023-04-06T08:31:37;22.60;34.90
3850;DHT22;1940;51.052;13.678;2023-04-06T08:34:04;22.60;34.90
3850;DHT22;1940;51.052;13.678;2023-04-06T08:36:30;22.30;35.20
3850;DHT22;1940;51.052;13.678;2023-04-06T08:38:56;22.40;34.60
3850;DHT22;1940;51.052;13.678;2023-04-06T08:41:21;22.10;34.80
3850;DHT22;1940;51.052;13.678;2023-04-06T08:43:49;21.90;34.80
3850;DHT22;1940;51.052;13.678;2023-04-06T08:46:15;21.50;35.00
3850;DHT22;1940;51.052;13.678;2023-04-06T08:48:42;20.70;35.40
3850;DHT22;1940;51.052;13.678;2023-04-06T08:51:09;20.80;34.60
3850;DHT22;1940;51.052;13.678;2023-04-06T08:53:35;21.00;33.80
3850;DHT22;1940;51.052;13.678;2023-04-06T08:56:02;20.50;34.30
3850;DHT22;1940;51.052;13.678;2023-04-06T08:58:33;20.20;34.80
3850;DHT22;1940;51.052;13.678;2023-04-06T09:01:00;20.70;34.90
3850;DHT22;1940;51.052;13.678;2023-04-06T09:03:27;21.00;33.90
3850;DHT22;1940;51.052;13.678;2023-04-06T09:05:53;21.30;34.00
3850;DHT22;1940;51.052;13.678;2023-04-06T09:08:19;21.80;33.30
3850;DHT22;1940;51.052;13.678;2023-04-06T09:10:45;22.20;33.10
3850;DHT22;1940;51.052;13.678;2023-04-06T09:13:10;21.60;32.90
3850;DHT22;1940;51.052;13.678;2023-04-06T09:15:37;21.90;33.00
3850;DHT22;1940;51.052;13.678;2023-04-06T09:18:02;22.00;32.60
3850;DHT22;1940;51.052;13.678;2023-04-06T09:20:28;22.00;32.20
3850;DHT22;1940;51.052;13.678;2023-04-06T09:22:54;22.30;31.80
3850;DHT22;1940;51.052;13.678;2023-04-06T09:25:24;22.70;30.90
3850;DHT22;1940;51.052;13.678;2023-04-06T09:28:01;22.10;31.40
3850;DHT22;1940;51.052;13.678;2023-04-06T09:30:27;21.10;34.70
3850;DHT22;1940;51.052;13.678;2023-04-06T09:32:54;21.40;32.30
3850;DHT22;1940;51.052;13.678;2023-04-06T09:35:21;21.70;31.90
3850;DHT22;1940;51.052;13.678;2023-04-06T09:37:50;21.60;32.00
3850;DHT22;1940;51.052;13.678;2023-04-06T09:40:17;21.70;32.10
3850;DHT22;1940;51.052;13.678;2023-04-06T09:42:47;22.10;31.50
3850;DHT22;1940;51.052;13.678;2023-04-06T09:45:14;22.40;31.10
3850;DHT22;1940;51.052;13.678;2023-04-06T09:47:42;21.10;32.40
3850;DHT22;1940;51.052;13.678;2023-04-06T09:50:10;21.30;31.70
3850;DHT22;1940;51.052;13.678;2023-04-06T09:52:46;22.40;31.30
3850;DHT22;1940;51.052;13.678;2023-04-06T09:55:20;22.30;30.30
3850;DHT22;1940;51.052;13.678;2023-04-06T09:57:57;22.40;30.60
3850;DHT22;1940;51.052;13.678;2023-04-06T10:00:25;22.50;30.50
3850;DHT22;1940;51.052;13.678;2023-04-06T10:03:09;22.70;29.80
3850;DHT22;1940;51.052;13.678;2023-04-06T10:05:46;22.70;30.10
3850;DHT22;1940;51.052;13.678;2023-04-06T10:08:16;22.00;30.30
3850;DHT22;1940;51.052;13.678;2023-04-06T10:10:43;21.10;30.30
3850;DHT22;1940;51.052;13.678;2023-04-06T10:13:10;19.90;31.10
3850;DHT22;1940;51.052;13.678;2023-04-06T10:15:40;18.60;32.40
3850;DHT22;1940;51.052;13.678;2023-04-06T10:18:08;18.20;32.30
3850;DHT22;1940;51.052;13.678;2023-04-06T10:23:11;16.60;34.10
3850;DHT22;1940;51.052;13.678;2023-04-06T10:25:52;16.00;35.10
3850;DHT22;1940;51.052;13.678;2023-04-06T10:28:19;15.20;35.90
3850;DHT22;1940;51.052;13.678;2023-04-06T10:30:45;14.10;37.80
3850;DHT22;1940;51.052;13.678;2023-04-06T10:33:15;13.60;37.80
3850;DHT22;1940;51.052;13.678;2023-04-06T10:35:41;14.10;37.50
3850;DHT22;1940;51.052;13.678;2023-04-06T10:38:06;14.50;37.80
3850;DHT22;1940;51.052;13.678;2023-04-06T10:40:36;15.50;36.60
3850;DHT22;1940;51.052;13.678;2023-04-06T10:43:12;17.50;34.90
3850;DHT22;1940;51.052;13.678;2023-04-06T10:45:39;19.00;32.80
3850;DHT22;1940;51.052;13.678;2023-04-06T10:48:15;20.20;31.70
3850;DHT22;1940;51.052;13.678;2023-04-06T10:50:43;21.00;30.90
3850;DHT22;1940;51.052;13.678;2023-04-06T10:53:09;21.40;30.70
3850;DHT22;1940;51.052;13.678;2023-04-06T10:55:35;22.30;29.70
3850;DHT22;1940;51.052;13.678;2023-04-06T10:58:06;22.60;29.70
3850;DHT22;1940;51.052;13.678;2023-04-06T11:00:32;22.20;29.60
3850;DHT22;1940;51.052;13.678;2023-04-06T11:03:01;22.60;29.60
3850;DHT22;1940;51.052;13.678;2023-04-06T11:05:27;22.90;29.30
3850;DHT22;1940;51.052;13.678;2023-04-06T11:07:53;23.10;29.20
3850;DHT22;1940;51.052;13.678;2023-04-06T11:10:22;23.50;28.80
3850;DHT22;1940;51.052;13.678;2023-04-06T11:12:53;24.10;28.40
3850;DHT22;1940;51.052;13.678;2023-04-06T11:15:18;24.00;29.20
3850;DHT22;1940;51.052;13.678;2023-04-06T11:17:44;21.90;30.40
3850;DHT22;1940;51.052;13.678;2023-04-06T11:20:11;19.40;31.70
3850;DHT22;1940;51.052;13.678;2023-04-06T11:22:48;17.80;33.70
3850;DHT22;1940;51.052;13.678;2023-04-06T11:25:13;16.80;35.20
3850;DHT22;1940;51.052;13.678;2023-04-06T11:27:40;16.00;36.70
3850;DHT22;1940;51.052;13.678;2023-04-06T11:30:08;15.30;37.50
3850;DHT22;1940;51.052;13.678;2023-04-06T11:32:45;14.60;37.70
3850;DHT22;1940;51.052;13.678;2023-04-06T11:35:23;14.10;37.30
3850;DHT22;1940;51.052;13.678;2023-04-06T11:37:50;13.60;39.10
3850;DHT22;1940;51.052;13.678;2023-04-06T11:40:15;13.70;38.90
3850;DHT22;1940;51.052;13.678;2023-04-06T11:42:52;13.30;40.20
3850;DHT22;1940;51.052;13.678;2023-04-06T11:45:19;13.30;38.70
3850;DHT22;1940;51.052;13.678;2023-04-06T11:47:44;13.50;39.00
3850;DHT22;1940;51.052;13.678;2023-04-06T11:50:11;13.90;39.70
3850;DHT22;1940;51.052;13.678;2023-04-06T11:52:41;13.80;40.00
3850;DHT22;1940;51.052;13.678;2023-04-06T11:55:15;13.80;39.00
3850;DHT22;1940;51.052;13.678;2023-04-06T11:57:41;14.20;37.90
3850;DHT22;1940;51.052;13.678;2023-04-06T12:00:08;14.30;37.80
3850;DHT22;1940;51.052;13.678;2023-04-06T12:02:35;14.10;42.00
3850;DHT22;1940;51.052;13.678;2023-04-06T12:05:01;13.60;41.70
3850;DHT22;1940;51.052;13.678;2023-04-06T12:07:28;13.60;41.80
3850;DHT22;1940;51.052;13.678;2023-04-06T12:09:53;12.90;42.20
3850;DHT22;1940;51.052;13.678;2023-04-06T12:12:19;12.80;42.60
3850;DHT22;1940;51.052;13.678;2023-04-06T12:14:44;12.40;42.90
3850;DHT22;1940;51.052;13.678;2023-04-06T12:17:10;12.20;43.00
3850;DHT22;1940;51.052;13.678;2023-04-06T12:19:35;12.00;43.80
3850;DHT22;1940;51.052;13.678;2023-04-06T12:22:01;12.10;44.50
3850;DHT22;1940;51.052;13.678;2023-04-06T12:24:27;12.10;44.10
3850;DHT22;1940;51.052;13.678;2023-04-06T12:26:53;12.40;43.50
3850;DHT22;1940;51.052;13.678;2023-04-06T12:29:19;12.60;43.10
3850;DHT22;1940;51.052;13.678;2023-04-06T12:31:45;12.70;42.00
3850;DHT22;1940;51.052;13.678;2023-04-06T12:34:10;12.80;41.70
3850;DHT22;1940;51.052;13.678;2023-04-06T12:36:37;12.70;41.60
3850;DHT22;1940;51.052;13.678;2023-04-06T12:39:03;12.60;41.50
3850;DHT22;1940;51.052;13.678;2023-04-06T12:41:29;12.20;41.70
3850;DHT22;1940;51.052;13.678;2023-04-06T12:43:55;12.10;41.70
3850;DHT22;1940;51.052;13.678;2023-04-06T12:46:20;12.00;41.90
3850;DHT22;1940;51.052;13.678;2023-04-06T12:48:46;12.30;41.70
3850;DHT22;1940;51.052;13.678;2023-04-06T12:51:12;12.50;42.40
3850;DHT22;1940;51.052;13.678;2023-04-06T12:53:38;12.70;42.40
3850;DHT22;1940;51.052;13.678;2023-04-06T12:56:11;12.70;42.10
3850;DHT22;1940;51.052;13.678;2023-04-06T12:58:37;12.70;41.80
3850;DHT22;1940;51.052;13.678;2023-04-06T13:01:06;12.60;41.80
3850;DHT22;1940;51.052;13.678;2023-04-06T13:03:32;12.50;42.20
3850;DHT22;1940;51.052;13.678;2023-04-06T13:05:59;12.40;43.30
3850;DHT22;1940;51.052;13.678;2023-04-06T13:08:25;12.20;43.10
3850;DHT22;1940;51.052;13.678;2023-04-06T13:10:52;12.10;43.90
3850;DHT22;1940;51.052;13.678;2023-04-06T13:13:23;12.20;44.10
3850;DHT22;1940;51.052;13.678;2023-04-06T13:15:49;12.30;42.60
3850;DHT22;1940;51.052;13.678;2023-04-06T13:18:15;12.40;42.80
3850;DHT22;1940;51.052;13.678;2023-04-06T13:20:41;12.30;42.50
3850;DHT22;1940;51.052;13.678;2023-04-06T13:23:07;12.20;42.80
3850;DHT22;1940;51.052;13.678;2023-04-06T13:25:33;12.00;43.20
3850;DHT22;1940;51.052;13.678;2023-04-06T13:27:58;11.90;42.60
3850;DHT22;1940;51.052;13.678;2023-04-06T13:30:24;12.00;43.20
3850;DHT22;1940;51.052;13.678;2023-04-06T13:32:50;11.90;44.00
3850;DHT22;1940;51.052;13.678;2023-04-06T13:35:15;11.90;42.80
3850;DHT22;1940;51.052;13.678;2023-04-06T13:37:42;11.90;42.70
3850;DHT22;1940;51.052;13.678;2023-04-06T13:40:08;11.80;42.80
3850;DHT22;1940;51.052;13.678;2023-04-06T13:42:34;11.80;42.30
3850;DHT22;1940;51.052;13.678;2023-04-06T13:45:00;11.70;43.10
3850;DHT22;1940;51.052;13.678;2023-04-06T13:47:26;11.80;42.70
3850;DHT22;1940;51.052;13.678;2023-04-06T13:49:53;11.70;42.40
3850;DHT22;1940;51.052;13.678;2023-04-06T13:52:19;11.70;42.80
3850;DHT22;1940;51.052;13.678;2023-04-06T13:54:45;11.80;43.00
3850;DHT22;1940;51.052;13.678;2023-04-06T13:57:10;12.10;42.60
3850;DHT22;1940;51.052;13.678;2023-04-06T13:59:38;12.20;42.80
3850;DHT22;1940;51.052;13.678;2023-04-06T14:02:05;12.10;43.90
3850;DHT22;1940;51.052;13.678;2023-04-06T14:04:31;12.00;43.20
3850;DHT22;1940;51.052;13.678;2023-04-06T14:06:58;11.90;43.40
3850;DHT22;1940;51.052;13.678;2023-04-06T14:09:23;12.10;43.50
3850;DHT22;1940;51.052;13.678;2023-04-06T14:11:50;12.20;42.90
3850;DHT22;1940;51.052;13.678;2023-04-06T14:14:16;12.40;41.70
3850;DHT22;1940;51.052;13.678;2023-04-06T14:16:42;12.50;42.10
3850;DHT22;1940;51.052;13.678;2023-04-06T14:19:15;12.10;42.90
3850;DHT22;1940;51.052;13.678;2023-04-06T14:21:43;11.90;42.70
3850;DHT22;1940;51.052;13.678;2023-04-06T14:24:09;11.90;42.70
3850;DHT22;1940;51.052;13.678;2023-04-06T14:26:36;11.80;42.90
3850;DHT22;1940;51.052;13.678;2023-04-06T14:29:03;11.80;42.70
3850;DHT22;1940;51.052;13.678;2023-04-06T14:31:29;11.80;43.00
3850;DHT22;1940;51.052;13.678;2023-04-06T14:33:55;11.90;42.40
3850;DHT22;1940;51.052;13.678;2023-04-06T14:36:20;12.00;42.40
3850;DHT22;1940;51.052;13.678;2023-04-06T14:38:46;12.10;42.60
3850;DHT22;1940;51.052;13.678;2023-04-06T14:41:16;12.00;42.80
3850;DHT22;1940;51.052;13.678;2023-04-06T14:43:43;12.20;43.00
3850;DHT22;1940;51.052;13.678;2023-04-06T14:46:08;11.90;42.40
3850;DHT22;1940;51.052;13.678;2023-04-06T14:48:35;12.00;42.20
3850;DHT22;1940;51.052;13.678;2023-04-06T14:51:01;12.10;42.60
3850;DHT22;1940;51.052;13.678;2023-04-06T14:53:26;11.90;43.30
3850;DHT22;1940;51.052;13.678;2023-04-06T14:55:53;11.70;44.00
3850;DHT22;1940;51.052;13.678;2023-04-06T14:58:19;11.70;43.90
3850;DHT22;1940;51.052;13.678;2023-04-06T15:00:45;11.70;43.50
3850;DHT22;1940;51.052;13.678;2023-04-06T15:03:11;11.70;43.70
3850;DHT22;1940;51.052;13.678;2023-04-06T15:05:36;11.70;43.70
3850;DHT22;1940;51.052;13.678;2023-04-06T15:08:02;11.60;44.50
3850;DHT22;1940;51.052;13.678;2023-04-06T15:10:31;11.40;44.60
3850;DHT22;1940;51.052;13.678;2023-04-06T15:12:56;11.40;44.50
3850;DHT22;1940;51.052;13.678;2023-04-06T15:15:21;11.40;45.30
3850;DHT22;1940;51.052;13.678;2023-04-06T15:17:47;11.50;45.10
3850;DHT22;1940;51.052;13.678;2023-04-06T15:20:13;11.50;45.70
3850;DHT22;1940;51.052;13.678;2023-04-06T15:22:38;11.60;45.30
3850;DHT22;1940;51.052;13.678;2023-04-06T15:25:04;11.30;45.40
3850;DHT22;1940;51.052;13.678;2023-04-06T15:27:30;11.30;45.20
3850;DHT22;1940;51.052;13.678;2023-04-06T15:29:56;11.40;45.00
3850;DHT22;1940;51.052;13.678;2023-04-06T15:32:23;11.50;44.00
3850;DHT22;1940;51.052;13.678;2023-04-06T15:34:49;11.50;44.40
3850;DHT22;1940;51.052;13.678;2023-04-06T15:37:15;11.50;44.50
3850;DHT22;1940;51.052;13.678;2023-04-06T15:39:40;11.50;45.00
3850;DHT22;1940;51.052;13.678;2023-04-06T15:42:06;11.50;44.50
3850;DHT22;1940;51.052;13.678;2023-04-06T15:44:31;11.60;44.10
3850;DHT22;1940;51.052;13.678;2023-04-06T15:46:57;11.60;44.90
3850;DHT22;1940;51.052;13.678;2023-04-06T15:49:22;11.30;45.40
3850;DHT22;1940;51.052;13.678;2023-04-06T15:51:49;11.10;45.70